sensor_id;sensor_type;location;lat;lon;timestamp;pressure;altitude;pressure_sealevel;temperature;humidity
14269;BME280;7218;51.480;7.006;2023-03-13T00:00:23;99429.53;;;12.99;76.56
14269;BME280;7218;51.480;7.006;2023-03-13T00:02:50;99416.53;;;13.17;75.91
14269;BME280;7218;51.480;7.006;2023-03-13T00:05:16;99420.03;;;12.76;78.11
14269;BME280;7218;51.480;7.006;2023-03-13T00:07:44;99413.59;;;12.84;77.69
14269;BME280;7218;51.480;7.006;2023-03-13T00:10:11;99419.69;;;12.63;79.18
14269;BME280;7218;51.480;7.006;2023-03-13T00:12:37;99416.59;;;13.16;77.01
14269;BME280;7218;51.480;7.006;2023-03-13T00:15:05;99402.06;;;12.88;79.22
14269;BME280;7218;51.480;7.006;2023-03-13T00:17:32;99396.16;;;12.83;79.63
14269;BME280;7218;51.480;7.006;2023-03-13T00:19:58;99399.03;;;12.98;79.22
14269;BME280;7218;51.480;7.006;2023-03-13T00:22:25;99392.84;;;12.80;81.10
14269;BME280;7218;51.480;7.006;2023-03-13T00:24:54;99382.69;;;12.72;82.44
14269;BME280;7218;51.480;7.006;2023-03-13T00:27:20;99379.28;;;12.90;82.15
14269;BME280;7218;51.480;7.006;2023-03-13T00:29:47;99373.94;;;12.73;83.34
14269;BME280;7218;51.480;7.006;2023-03-13T00:32:15;99374.13;;;12.89;82.52
14269;BME280;7218;51.480;7.006;2023-03-13T00:34:41;99368.44;;;13.00;82.42
14269;BME280;7218;51.480;7.006;2023-03-13T00:37:07;99360.19;;;12.68;83.86
14269;BME280;7218;51.480;7.006;2023-03-13T00:39:34;99357.59;;;12.68;83.93
14269;BME280;7218;51.480;7.006;2023-03-13T00:42:02;99342.16;;;12.62;84.75
14269;BME280;7218;51.480;7.006;2023-03-13T00:44:29;99340.31;;;12.64;84.75
14269;BME280;7218;51.480;7.006;2023-03-13T00:46:55;99335.34;;;12.58;85.05
14269;BME280;7218;51.480;7.006;2023-03-13T00:49:22;99340.38;;;12.42;85.45
14269;BME280;7218;51.480;7.006;2023-03-13T00:51:49;99335.59;;;12.52;85.29
14269;BME280;7218;51.480;7.006;2023-03-13T00:54:15;99332.72;;;12.58;86.03
14269;BME280;7218;51.480;7.006;2023-03-13T00:56:42;99325.47;;;12.24;88.07
14269;BME280;7218;51.480;7.006;2023-03-13T00:59:09;99326.06;;;12.51;87.83
14269;BME280;7218;51.480;7.006;2023-03-13T01:01:36;99313.06;;;12.49;88.65
14269;BME280;7218;51.480;7.006;2023-03-13T01:04:04;99295.06;;;12.42;89.44
14269;BME280;7218;51.480;7.006;2023-03-13T01:06:33;99290.81;;;12.80;88.14
14269;BME280;7218;51.480;7.006;2023-03-13T01:09:01;99286.06;;;12.49;89.97
14269;BME280;7218;51.480;7.006;2023-03-13T01:11:30;99276.50;;;12.28;90.89
14269;BME280;7218;51.480;7.006;2023-03-13T01:14:00;99268.66;;;12.48;90.09
14269;BME280;7218;51.480;7.006;2023-03-13T01:16:29;99263.88;;;12.58;89.73
14269;BME280;7218;51.480;7.006;2023-03-13T01:18:58;99263.28;;;12.11;92.66
14269;BME280;7218;51.480;7.006;2023-03-13T01:21:26;99281.59;;;12.31;92.65
14269;BME280;7218;51.480;7.006;2023-03-13T01:23:53;99260.94;;;12.04;95.14
14269;BME280;7218;51.480;7.006;2023-03-13T01:26:20;99257.25;;;12.30;95.83
14269;BME280;7218;51.480;7.006;2023-03-13T01:28:47;99253.38;;;12.19;96.77
14269;BME280;7218;51.480;7.006;2023-03-13T01:31:15;99258.41;;;12.03;98.57
14269;BME280;7218;51.480;7.006;2023-03-13T01:33:45;99242.56;;;11.86;99.97
14269;BME280;7218;51.480;7.006;2023-03-13T01:36:12;99239.84;;;11.45;100.00
14269;BME280;7218;51.480;7.006;2023-03-13T01:38:39;99235.34;;;11.49;100.00
14269;BME280;7218;51.480;7.006;2023-03-13T01:41:06;99217.94;;;11.91;100.00
14269;BME280;7218;51.480;7.006;2023-03-13T01:43:34;99220.16;;;11.80;100.00
14269;BME280;7218;51.480;7.006;2023-03-13T01:46:10;99223.69;;;11.79;100.00
14269;BME280;7218;51.480;7.006;2023-03-13T01:48:44;99212.81;;;12.10;100.00
14269;BME280;7218;51.480;7.006;2023-03-13T01:51:17;99196.84;;;11.54;100.00
14269;BME280;7218;51.480;7.006;2023-03-13T01:53:49;99192.66;;;11.50;100.00
14269;BME280;7218;51.480;7.006;2023-03-13T01:56:19;99190.50;;;12.01;100.00
14269;BME280;7218;51.480;7.006;2023-03-13T01:58:49;99184.25;;;11.63;100.00
14269;BME280;7218;51.480;7.006;2023-03-13T02:01:18;99171.84;;;11.90;100.00
14269;BME280;7218;51.480;7.006;2023-03-13T02:03:47;99166.03;;;11.62;100.00
14269;BME280;7218;51.480;7.006;2023-03-13T02:06:15;99159.56;;;11.71;100.00
14269;BME280;7218;51.480;7.006;2023-03-13T02:08:46;99149.41;;;11.64;100.00
14269;BME280;7218;51.480;7.006;2023-03-13T02:11:20;99150.09;;;11.90;100.00
14269;BME280;7218;51.480;7.006;2023-03-13T02:13:49;99132.34;;;11.56;100.00
14269;BME280;7218;51.480;7.006;2023-03-13T02:16:17;99136.97;;;11.91;100.00
14269;BME280;7218;51.480;7.006;2023-03-13T02:18:46;99130.13;;;11.67;100.00
14269;BME280;7218;51.480;7.006;2023-03-13T02:21:18;99121.34;;;11.70;100.00
14269;BME280;7218;51.480;7.006;2023-03-13T02:23:54;99106.56;;;11.90;100.00
14269;BME280;7218;51.480;7.006;2023-03-13T02:26:24;99108.22;;;11.91;100.00
14269;BME280;7218;51.480;7.006;2023-03-13T02:28:51;99087.06;;;11.77;100.00
14269;BME280;7218;51.480;7.006;2023-03-13T02:31:18;99091.50;;;11.55;100.00
14269;BME280;7218;51.480;7.006;2023-03-13T02:33:44;99095.44;;;11.65;100.00
14269;BME280;7218;51.480;7.006;2023-03-13T02:36:13;99073.91;;;12.19;100.00
14269;BME280;7218;51.480;7.006;2023-03-13T02:38:44;99081.06;;;11.95;100.00
14269;BME280;7218;51.480;7.006;2023-03-13T02:41:13;99077.31;;;12.01;100.00
14269;BME280;7218;51.480;7.006;2023-03-13T02:43:41;99070.94;;;11.68;100.00
14269;BME280;7218;51.480;7.006;2023-03-13T02:46:09;99059.59;;;11.89;100.00
14269;BME280;7218;51.480;7.006;2023-03-13T02:48:39;99060.22;;;11.94;100.00
14269;BME280;7218;51.480;7.006;2023-03-13T02:51:11;99052.25;;;11.56;100.00
14269;BME280;7218;51.480;7.006;2023-03-13T02:53:41;99052.72;;;11.86;100.00
14269;BME280;7218;51.480;7.006;2023-03-13T02:56:09;99043.91;;;11.89;100.00
14269;BME280;7218;51.480;7.006;2023-03-13T02:58:38;99046.72;;;11.64;100.00
14269;BME280;7218;51.480;7.006;2023-03-13T03:01:06;99034.28;;;12.10;100.00
14269;BME280;7218;51.480;7.006;2023-03-13T03:03:33;99031.72;;;12.27;100.00
14269;BME280;7218;51.480;7.006;2023-03-13T03:06:01;99039.34;;;12.13;100.00
14269;BME280;7218;51.480;7.006;2023-03-13T03:08:28;99026.06;;;11.98;100.00
14269;BME280;7218;51.480;7.006;2023-03-13T03:10:55;99017.84;;;12.06;100.00
14269;BME280;7218;51.480;7.006;2023-03-13T03:13:21;99004.94;;;12.03;100.00
14269;BME280;7218;51.480;7.006;2023-03-13T03:15:48;98999.56;;;12.06;100.00
14269;BME280;7218;51.480;7.006;2023-03-13T03:18:15;99009.81;;;12.11;100.00
14269;BME280;7218;51.480;7.006;2023-03-13T03:20:42;98990.25;;;12.00;100.00
14269;BME280;7218;51.480;7.006;2023-03-13T03:23:08;99003.25;;;12.39;100.00
14269;BME280;7218;51.480;7.006;2023-03-13T03:25:35;98998.31;;;12.33;100.00
14269;BME280;7218;51.480;7.006;2023-03-13T03:28:01;99000.88;;;12.35;100.00
14269;BME280;7218;51.480;7.006;2023-03-13T03:30:28;99000.97;;;12.32;100.00
14269;BME280;7218;51.480;7.006;2023-03-13T03:32:54;98979.50;;;12.44;100.00
14269;BME280;7218;51.480;7.006;2023-03-13T03:35:22;99002.97;;;12.27;100.00
14269;BME280;7218;51.480;7.006;2023-03-13T03:37:49;98987.25;;;12.45;100.00
14269;BME280;7218;51.480;7.006;2023-03-13T03:40:16;98990.25;;;12.38;100.00
14269;BME280;7218;51.480;7.006;2023-03-13T03:42:44;98991.22;;;12.35;100.00
14269;BME280;7218;51.480;7.006;2023-03-13T03:45:11;98989.31;;;12.58;100.00
14269;BME280;7218;51.480;7.006;2023-03-13T03:47:37;98972.19;;;12.69;100.00
14269;BME280;7218;51.480;7.006;2023-03-13T03:50:04;98984.38;;;12.33;100.00
14269;BME280;7218;51.480;7.006;2023-03-13T03:52:33;98979.06;;;12.53;100.00
14269;BME280;7218;51.480;7.006;2023-03-13T03:54:59;98998.16;;;12.36;100.00
14269;BME280;7218;51.480;7.006;2023-03-13T03:57:26;98993.78;;;12.37;100.00
14269;BME280;7218;51.480;7.006;2023-03-13T03:59:52;98993.00;;;12.16;100.00
14269;BME280;7218;51.480;7.006;2023-03-13T04:02:19;99005.78;;;12.41;100.00
14269;BME280;7218;51.480;7.006;2023-03-13T04:04:45;99003.13;;;12.24;100.00
14269;BME280;7218;51.480;7.006;2023-03-13T04:07:11;98995.31;;;12.41;100.00
14269;BME280;7218;51.480;7.006;2023-03-13T04:09:39;99001.41;;;12.60;100.00
14269;BME280;7218;51.480;7.006;2023-03-13T04:12:06;98986.94;;;12.34;100.00
14269;BME280;7218;51.480;7.006;2023-03-13T04:14:33;98992.28;;;12.31;100.00
14269;BME280;7218;51.480;7.006;2023-03-13T04:17:00;98991.19;;;12.18;100.00
14269;BME280;7218;51.480;7.006;2023-03-13T04:19:26;98980.03;;;12.50;100.00
14269;BME280;7218;51.480;7.006;2023-03-13T04:21:53;98974.00;;;12.50;100.00
14269;BME280;7218;51.480;7.006;2023-03-13T04:24:19;98971.63;;;12.63;100.00
14269;BME280;7218;51.480;7.006;2023-03-13T04:26:47;98958.47;;;12.64;100.00
14269;BME280;7218;51.480;7.006;2023-03-13T04:29:13;98948.81;;;12.47;100.00
14269;BME280;7218;51.480;7.006;2023-03-13T04:31:40;98956.31;;;12.72;100.00
14269;BME280;7218;51.480;7.006;2023-03-13T04:34:06;98953.31;;;12.63;100.00
14269;BME280;7218;51.480;7.006;2023-03-13T04:36:32;98951.94;;;12.73;100.00
14269;BME280;7218;51.480;7.006;2023-03-13T04:38:59;98954.31;;;12.60;100.00
14269;BME280;7218;51.480;7.006;2023-03-13T04:41:25;98971.38;;;12.50;100.00
14269;BME280;7218;51.480;7.006;2023-03-13T04:43:53;98961.25;;;12.95;100.00
14269;BME280;7218;51.480;7.006;2023-03-13T04:46:20;98953.59;;;13.10;100.00
14269;BME280;7218;51.480;7.006;2023-03-13T04:48:46;98945.25;;;13.02;100.00
14269;BME280;7218;51.480;7.006;2023-03-13T04:51:13;98950.75;;;13.14;100.00
14269;BME280;7218;51.480;7.006;2023-03-13T04:53:39;98939.25;;;13.00;100.00
14269;BME280;7218;51.480;7.006;2023-03-13T04:56:06;98945.56;;;12.78;100.00
14269;BME280;7218;51.480;7.006;2023-03-13T04:58:32;98950.53;;;12.48;100.00
14269;BME280;7218;51.480;7.006;2023-03-13T05:01:00;98938.69;;;12.76;100.00
14269;BME280;7218;51.480;7.006;2023-03-13T05:03:27;98940.47;;;12.58;100.00
14269;BME280;7218;51.480;7.006;2023-03-13T05:05:53;98944.69;;;13.14;100.00
14269;BME280;7218;51.480;7.006;2023-03-13T05:08:20;98955.00;;;12.64;100.00
14269;BME280;7218;51.480;7.006;2023-03-13T05:10:46;98932.56;;;13.28;100.00
14269;BME280;7218;51.480;7.006;2023-03-13T05:13:13;98922.81;;;13.48;100.00
14269;BME280;7218;51.480;7.006;2023-03-13T05:15:39;98932.09;;;12.86;100.00
14269;BME280;7218;51.480;7.006;2023-03-13T05:18:07;98914.53;;;13.55;100.00
14269;BME280;7218;51.480;7.006;2023-03-13T05:20:33;98909.63;;;13.33;100.00
14269;BME280;7218;51.480;7.006;2023-03-13T05:23:00;98910.16;;;13.56;100.00
14269;BME280;7218;51.480;7.006;2023-03-13T05:25:26;98919.53;;;13.27;100.00
14269;BME280;7218;51.480;7.006;2023-03-13T05:27:53;98913.03;;;13.51;100.00
14269;BME280;7218;51.480;7.006;2023-03-13T05:30:20;98916.25;;;13.23;100.00
14269;BME280;7218;51.480;7.006;2023-03-13T05:32:46;98924.78;;;13.27;100.00
14269;BME280;7218;51.480;7.006;2023-03-13T05:35:14;98918.13;;;13.70;100.00
14269;BME280;7218;51.480;7.006;2023-03-13T05:37:41;98904.94;;;13.23;100.00
14269;BME280;7218;51.480;7.006;2023-03-13T05:40:09;98904.13;;;13.87;100.00
14269;BME280;7218;51.480;7.006;2023-03-13T05:42:35;98903.50;;;13.66;100.00
14269;BME280;7218;51.480;7.006;2023-03-13T05:45:02;98923.50;;;13.51;100.00
14269;BME280;7218;51.480;7.006;2023-03-13T05:47:28;98911.97;;;13.71;100.00
14269;BME280;7218;51.480;7.006;2023-03-13T05:49:55;98908.13;;;13.61;100.00
14269;BME280;7218;51.480;7.006;2023-03-13T05:52:23;98913.03;;;13.51;100.00
14269;BME280;7218;51.480;7.006;2023-03-13T05:54:49;98921.69;;;13.69;100.00
14269;BME280;7218;51.480;7.006;2023-03-13T05:57:16;98905.97;;;14.00;100.00
14269;BME280;7218;51.480;7.006;2023-03-13T05:59:42;98903.25;;;13.70;100.00
14269;BME280;7218;51.480;7.006;2023-03-13T06:02:09;98897.59;;;13.78;100.00
14269;BME280;7218;51.480;7.006;2023-03-13T06:04:35;98894.63;;;14.00;100.00
14269;BME280;7218;51.480;7.006;2023-03-13T06:07:02;98888.97;;;13.76;100.00
14269;BME280;7218;51.480;7.006;2023-03-13T06:09:30;98886.59;;;13.71;100.00
14269;BME280;7218;51.480;7.006;2023-03-13T06:11:56;98880.25;;;13.75;100.00
14269;BME280;7218;51.480;7.006;2023-03-13T06:14:23;98872.00;;;13.67;100.00
14269;BME280;7218;51.480;7.006;2023-03-13T06:16:49;98884.06;;;14.17;100.00
14269;BME280;7218;51.480;7.006;2023-03-13T06:19:16;98883.06;;;13.88;100.00
14269;BME280;7218;51.480;7.006;2023-03-13T06:21:42;98884.13;;;14.31;100.00
14269;BME280;7218;51.480;7.006;2023-03-13T06:24:09;98882.47;;;13.83;100.00
14269;BME280;7218;51.480;7.006;2023-03-13T06:26:37;98879.94;;;14.29;100.00
14269;BME280;7218;51.480;7.006;2023-03-13T06:29:03;98890.44;;;13.97;100.00
14269;BME280;7218;51.480;7.006;2023-03-13T06:31:30;98887.47;;;14.19;100.00
14269;BME280;7218;51.480;7.006;2023-03-13T06:33:56;98889.69;;;14.56;100.00
14269;BME280;7218;51.480;7.006;2023-03-13T06:36:23;98885.09;;;14.14;100.00
14269;BME280;7218;51.480;7.006;2023-03-13T06:38:50;98882.47;;;14.14;100.00
14269;BME280;7218;51.480;7.006;2023-03-13T06:41:17;98882.13;;;14.96;100.00
14269;BME280;7218;51.480;7.006;2023-03-13T06:43:44;98903.41;;;14.30;100.00
14269;BME280;7218;51.480;7.006;2023-03-13T06:46:16;98886.66;;;14.64;100.00
14269;BME280;7218;51.480;7.006;2023-03-13T06:48:43;98917.72;;;14.40;100.00
14269;BME280;7218;51.480;7.006;2023-03-13T06:51:10;98908.00;;;14.42;100.00
14269;BME280;7218;51.480;7.006;2023-03-13T06:53:37;98913.44;;;14.08;100.00
14269;BME280;7218;51.480;7.006;2023-03-13T06:56:04;98918.50;;;14.42;100.00
14269;BME280;7218;51.480;7.006;2023-03-13T06:58:30;98903.88;;;14.38;100.00
14269;BME280;7218;51.480;7.006;2023-03-13T07:00:58;98911.50;;;14.73;100.00
14269;BME280;7218;51.480;7.006;2023-03-13T07:03:25;98915.94;;;14.25;100.00
14269;BME280;7218;51.480;7.006;2023-03-13T07:05:54;98909.63;;;14.29;100.00
14269;BME280;7218;51.480;7.006;2023-03-13T07:08:21;98885.88;;;14.92;100.00
14269;BME280;7218;51.480;7.006;2023-03-13T07:10:49;98894.03;;;14.57;100.00
14269;BME280;7218;51.480;7.006;2023-03-13T07:13:17;98911.22;;;14.77;99.31
14269;BME280;7218;51.480;7.006;2023-03-13T07:15:44;98902.84;;;14.71;100.00
14269;BME280;7218;51.480;7.006;2023-03-13T07:18:12;98922.81;;;14.43;100.00
14269;BME280;7218;51.480;7.006;2023-03-13T07:20:38;98891.13;;;14.92;98.68
14269;BME280;7218;51.480;7.006;2023-03-13T07:23:04;98896.44;;;14.90;97.98
14269;BME280;7218;51.480;7.006;2023-03-13T07:25:31;98880.41;;;14.51;99.98
14269;BME280;7218;51.480;7.006;2023-03-13T07:27:57;98862.91;;;14.95;98.06
14269;BME280;7218;51.480;7.006;2023-03-13T07:30:25;98870.50;;;15.00;97.59
14269;BME280;7218;51.480;7.006;2023-03-13T07:32:51;98859.06;;;15.01;97.51
14269;BME280;7218;51.480;7.006;2023-03-13T07:35:19;98865.22;;;14.86;98.34
14269;BME280;7218;51.480;7.006;2023-03-13T07:37:46;98846.91;;;15.14;96.30
14269;BME280;7218;51.480;7.006;2023-03-13T07:40:12;98877.44;;;15.01;97.32
14269;BME280;7218;51.480;7.006;2023-03-13T07:42:39;98870.47;;;14.86;97.70
14269;BME280;7218;51.480;7.006;2023-03-13T07:45:06;98859.81;;;14.89;96.88
14269;BME280;7218;51.480;7.006;2023-03-13T07:47:33;98844.34;;;14.98;96.57
14269;BME280;7218;51.480;7.006;2023-03-13T07:49:59;98867.69;;;14.89;95.90
14269;BME280;7218;51.480;7.006;2023-03-13T07:52:27;98847.41;;;14.91;95.55
14269;BME280;7218;51.480;7.006;2023-03-13T07:54:54;98841.03;;;14.81;96.25
14269;BME280;7218;51.480;7.006;2023-03-13T07:57:20;98859.06;;;15.15;94.29
14269;BME280;7218;51.480;7.006;2023-03-13T07:59:47;98860.47;;;14.92;95.02
14269;BME280;7218;51.480;7.006;2023-03-13T08:02:13;98861.59;;;15.02;94.71
14269;BME280;7218;51.480;7.006;2023-03-13T08:04:41;98838.06;;;15.29;93.20
14269;BME280;7218;51.480;7.006;2023-03-13T08:07:07;98842.75;;;15.24;93.04
14269;BME280;7218;51.480;7.006;2023-03-13T08:09:35;98863.38;;;15.02;93.95
14269;BME280;7218;51.480;7.006;2023-03-13T08:12:02;98855.22;;;14.92;93.01
14269;BME280;7218;51.480;7.006;2023-03-13T08:14:29;98874.19;;;15.26;91.74
14269;BME280;7218;51.480;7.006;2023-03-13T08:16:55;98885.28;;;14.87;92.80
14269;BME280;7218;51.480;7.006;2023-03-13T08:19:22;98841.34;;;15.47;90.47
14269;BME280;7218;51.480;7.006;2023-03-13T08:21:49;98844.44;;;15.25;91.15
14269;BME280;7218;51.480;7.006;2023-03-13T08:24:15;98850.34;;;15.00;91.53
14269;BME280;7218;51.480;7.006;2023-03-13T08:26:43;98849.81;;;15.24;91.11
14269;BME280;7218;51.480;7.006;2023-03-13T08:29:11;98845.09;;;15.15;90.98
14269;BME280;7218;51.480;7.006;2023-03-13T08:31:42;98862.28;;;15.77;88.66
14269;BME280;7218;51.480;7.006;2023-03-13T08:34:10;98876.28;;;14.91;92.62
14269;BME280;7218;51.480;7.006;2023-03-13T08:36:37;98872.75;;;15.06;91.06
14269;BME280;7218;51.480;7.006;2023-03-13T08:39:09;98871.75;;;15.08;91.68
14269;BME280;7218;51.480;7.006;2023-03-13T08:41:36;98856.84;;;15.23;90.50
14269;BME280;7218;51.480;7.006;2023-03-13T08:44:07;98861.91;;;15.26;90.66
14269;BME280;7218;51.480;7.006;2023-03-13T08:46:35;98865.81;;;15.05;91.02
14269;BME280;7218;51.480;7.006;2023-03-13T08:49:02;98865.84;;;15.19;91.04
14269;BME280;7218;51.480;7.006;2023-03-13T08:51:29;98867.63;;;15.33;89.79
14269;BME280;7218;51.480;7.006;2023-03-13T08:53:56;98877.03;;;15.51;89.45
14269;BME280;7218;51.480;7.006;2023-03-13T08:56:24;98881.19;;;15.11;91.35
14269;BME280;7218;51.480;7.006;2023-03-13T08:58:52;98865.44;;;15.25;91.25
14269;BME280;7218;51.480;7.006;2023-03-13T09:01:21;98871.09;;;15.47;89.81
14269;BME280;7218;51.480;7.006;2023-03-13T09:03:48;98866.38;;;15.24;91.02
14269;BME280;7218;51.480;7.006;2023-03-13T09:06:15;98870.25;;;15.47;89.82
14269;BME280;7218;51.480;7.006;2023-03-13T09:08:41;98865.09;;;15.74;89.16
14269;BME280;7218;51.480;7.006;2023-03-13T09:11:10;98865.16;;;15.30;90.60
14269;BME280;7218;51.480;7.006;2023-03-13T09:13:39;98852.72;;;15.62;89.95
14269;BME280;7218;51.480;7.006;2023-03-13T09:16:08;98838.81;;;15.74;88.85
14269;BME280;7218;51.480;7.006;2023-03-13T09:18:36;98853.69;;;16.14;87.74
14269;BME280;7218;51.480;7.006;2023-03-13T09:21:06;98842.50;;;15.98;88.31
14269;BME280;7218;51.480;7.006;2023-03-13T09:23:33;98846.03;;;16.11;87.46
14269;BME280;7218;51.480;7.006;2023-03-13T09:26:00;98842.50;;;15.98;88.44
14269;BME280;7218;51.480;7.006;2023-03-13T09:28:27;98835.78;;;15.80;88.94
14269;BME280;7218;51.480;7.006;2023-03-13T09:30:53;98836.66;;;16.07;88.07
14269;BME280;7218;51.480;7.006;2023-03-13T09:33:21;98831.13;;;16.24;87.84
14269;BME280;7218;51.480;7.006;2023-03-13T09:35:49;98838.03;;;15.86;89.11
14269;BME280;7218;51.480;7.006;2023-03-13T09:38:16;98833.69;;;15.85;89.47
14269;BME280;7218;51.480;7.006;2023-03-13T09:40:45;98835.09;;;15.64;91.90
14269;BME280;7218;51.480;7.006;2023-03-13T09:43:20;98822.28;;;15.72;92.90
14269;BME280;7218;51.480;7.006;2023-03-13T09:45:53;98811.84;;;16.11;90.81
14269;BME280;7218;51.480;7.006;2023-03-13T09:48:29;98819.97;;;15.94;92.34
14269;BME280;7218;51.480;7.006;2023-03-13T09:51:04;98821.47;;;15.98;91.90
14269;BME280;7218;51.480;7.006;2023-03-13T09:53:37;98804.63;;;16.67;90.87
14269;BME280;7218;51.480;7.006;2023-03-13T09:56:12;98830.53;;;16.07;93.34
14269;BME280;7218;51.480;7.006;2023-03-13T09:58:46;98813.47;;;16.26;93.37
14269;BME280;7218;51.480;7.006;2023-03-13T10:01:16;98816.69;;;16.17;92.52
14269;BME280;7218;51.480;7.006;2023-03-13T10:03:54;98808.13;;;16.28;92.97
14269;BME280;7218;51.480;7.006;2023-03-13T10:06:26;98822.03;;;15.89;95.08
14269;BME280;7218;51.480;7.006;2023-03-13T10:08:54;98795.38;;;15.95;94.54
14269;BME280;7218;51.480;7.006;2023-03-13T10:11:27;98790.25;;;16.46;92.34
14269;BME280;7218;51.480;7.006;2023-03-13T10:13:59;98801.47;;;16.35;92.34
14269;BME280;7218;51.480;7.006;2023-03-13T10:16:30;98784.63;;;17.02;90.27
14269;BME280;7218;51.480;7.006;2023-03-13T10:19:07;98779.69;;;16.85;90.42
14269;BME280;7218;51.480;7.006;2023-03-13T10:21:38;98790.97;;;16.87;89.22
14269;BME280;7218;51.480;7.006;2023-03-13T10:24:13;98774.94;;;17.03;88.06
14269;BME280;7218;51.480;7.006;2023-03-13T10:26:42;98761.22;;;17.10;86.90
14269;BME280;7218;51.480;7.006;2023-03-13T10:29:24;98766.19;;;17.51;85.17
14269;BME280;7218;51.480;7.006;2023-03-13T10:31:55;98783.13;;;17.11;85.46
14269;BME280;7218;51.480;7.006;2023-03-13T10:34:23;98757.19;;;16.42;89.33
14269;BME280;7218;51.480;7.006;2023-03-13T10:36:56;98754.28;;;16.84;86.90
14269;BME280;7218;51.480;7.006;2023-03-13T10:39:25;98754.28;;;16.59;88.31
14269;BME280;7218;51.480;7.006;2023-03-13T10:41:56;98767.78;;;16.67;87.80
14269;BME280;7218;51.480;7.006;2023-03-13T10:44:29;98754.03;;;16.36;88.85
14269;BME280;7218;51.480;7.006;2023-03-13T10:46:59;98765.84;;;16.56;87.69
14269;BME280;7218;51.480;7.006;2023-03-13T10:49:27;98751.09;;;16.54;87.65
14269;BME280;7218;51.480;7.006;2023-03-13T10:51:58;98752.69;;;16.94;84.80
14269;BME280;7218;51.480;7.006;2023-03-13T10:54:26;98739.00;;;16.89;84.79
14269;BME280;7218;51.480;7.006;2023-03-13T10:57:08;98730.75;;;17.19;83.74
14269;BME280;7218;51.480;7.006;2023-03-13T10:59:38;98739.50;;;17.19;82.17
14269;BME280;7218;51.480;7.006;2023-03-13T11:02:19;98734.44;;;17.89;79.07
14269;BME280;7218;51.480;7.006;2023-03-13T11:04:46;98732.66;;;17.17;81.30
14269;BME280;7218;51.480;7.006;2023-03-13T11:07:24;98721.06;;;17.56;80.68
14269;BME280;7218;51.480;7.006;2023-03-13T11:09:58;98730.25;;;17.63;79.21
14269;BME280;7218;51.480;7.006;2023-03-13T11:12:24;98753.13;;;16.75;80.50
14269;BME280;7218;51.480;7.006;2023-03-13T11:14:56;98728.97;;;17.19;80.19
14269;BME280;7218;51.480;7.006;2023-03-13T11:17:31;98724.28;;;17.36;78.10
14269;BME280;7218;51.480;7.006;2023-03-13T11:20:06;98731.75;;;17.42;77.82
14269;BME280;7218;51.480;7.006;2023-03-13T11:22:42;98721.50;;;17.62;76.73
14269;BME280;7218;51.480;7.006;2023-03-13T11:25:17;98715.28;;;17.98;75.46
14269;BME280;7218;51.480;7.006;2023-03-13T11:30:51;98711.88;;;17.25;78.06
14269;BME280;7218;51.480;7.006;2023-03-13T11:33:27;98722.88;;;17.06;78.50
14269;BME280;7218;51.480;7.006;2023-03-13T11:36:00;98698.53;;;17.52;75.75
14269;BME280;7218;51.480;7.006;2023-03-13T11:38:32;98702.75;;;17.78;74.53
14269;BME280;7218;51.480;7.006;2023-03-13T11:41:08;98687.13;;;17.99;73.34
14269;BME280;7218;51.480;7.006;2023-03-13T11:43:47;98666.50;;;17.93;73.14
14269;BME280;7218;51.480;7.006;2023-03-13T11:46:29;98681.28;;;17.72;73.11
14269;BME280;7218;51.480;7.006;2023-03-13T11:52:34;98664.09;;;19.14;67.38
14269;BME280;7218;51.480;7.006;2023-03-13T11:55:28;98668.13;;;18.29;67.82
14269;BME280;7218;51.480;7.006;2023-03-13T12:01:08;98650.66;;;18.50;63.82
14269;BME280;7218;51.480;7.006;2023-03-13T12:03:40;98652.44;;;18.27;65.90
14269;BME280;7218;51.480;7.006;2023-03-13T12:06:18;98635.25;;;17.76;66.77
14269;BME280;7218;51.480;7.006;2023-03-13T12:08:51;98629.50;;;18.39;65.09
14269;BME280;7218;51.480;7.006;2023-03-13T12:11:23;98629.66;;;17.80;66.24
14269;BME280;7218;51.480;7.006;2023-03-13T12:13:55;98612.91;;;18.03;65.51
14269;BME280;7218;51.480;7.006;2023-03-13T12:16:27;98630.84;;;18.44;63.01
14269;BME280;7218;51.480;7.006;2023-03-13T12:18:57;98612.13;;;18.36;61.94
14269;BME280;7218;51.480;7.006;2023-03-13T12:21:28;98603.53;;;17.77;63.13
14269;BME280;7218;51.480;7.006;2023-03-13T12:24:02;98643.84;;;18.01;62.67
14269;BME280;7218;51.480;7.006;2023-03-13T12:26:34;98635.72;;;17.46;64.11
14269;BME280;7218;51.480;7.006;2023-03-13T12:29:11;98649.06;;;17.32;65.07
14269;BME280;7218;51.480;7.006;2023-03-13T12:31:42;98616.66;;;17.66;64.32
14269;BME280;7218;51.480;7.006;2023-03-13T12:34:17;98611.44;;;17.88;64.76
14269;BME280;7218;51.480;7.006;2023-03-13T12:36:47;98601.19;;;18.08;63.85
14269;BME280;7218;51.480;7.006;2023-03-13T12:39:27;98603.03;;;17.72;66.31
14269;BME280;7218;51.480;7.006;2023-03-13T12:42:25;98591.81;;;17.92;66.85
14269;BME280;7218;51.480;7.006;2023-03-13T12:44:55;98612.72;;;17.48;67.93
14269;BME280;7218;51.480;7.006;2023-03-13T12:47:29;98611.91;;;17.58;67.06
14269;BME280;7218;51.480;7.006;2023-03-13T12:50:10;98594.81;;;17.88;67.43
14269;BME280;7218;51.480;7.006;2023-03-13T12:53:01;98579.50;;;17.69;67.72
14269;BME280;7218;51.480;7.006;2023-03-13T12:55:48;98576.66;;;17.83;67.83
14269;BME280;7218;51.480;7.006;2023-03-13T12:58:25;98563.50;;;17.94;67.68
14269;BME280;7218;51.480;7.006;2023-03-13T13:00:55;98572.03;;;17.87;67.70
14269;BME280;7218;51.480;7.006;2023-03-13T13:03:30;98548.44;;;18.52;64.49
14269;BME280;7218;51.480;7.006;2023-03-13T13:06:06;98550.09;;;18.64;64.01
14269;BME280;7218;51.480;7.006;2023-03-13T13:08:38;98555.25;;;18.10;63.18
14269;BME280;7218;51.480;7.006;2023-03-13T13:11:33;98553.09;;;18.15;63.86
14269;BME280;7218;51.480;7.006;2023-03-13T13:14:05;98548.84;;;19.02;57.53
14269;BME280;7218;51.480;7.006;2023-03-13T13:16:57;98555.81;;;18.91;55.77
14269;BME280;7218;51.480;7.006;2023-03-13T13:19:44;98537.66;;;18.98;54.94
14269;BME280;7218;51.480;7.006;2023-03-13T13:22:46;98524.78;;;19.05;56.14
14269;BME280;7218;51.480;7.006;2023-03-13T13:25:32;98526.09;;;18.45;58.28
14269;BME280;7218;51.480;7.006;2023-03-13T13:28:18;98527.69;;;18.25;60.69